createdAt,value
2023-05-12T00:00:33.192Z,6.97
2023-05-12T00:03:03.792Z,6.97
2023-05-12T00:05:32.579Z,6.97
2023-05-12T00:08:01.461Z,6.91
2023-05-12T00:10:31.476Z,6.89
2023-05-12T00:13:00.233Z,6.85
2023-05-12T00:15:29.122Z,6.83
2023-05-12T00:17:58.099Z,6.80
2023-05-12T00:20:27.042Z,6.81
2023-05-12T00:22:55.591Z,6.79
2023-05-12T00:25:24.539Z,6.75
2023-05-12T00:27:54.786Z,6.77
2023-05-12T00:30:23.916Z,6.71
2023-05-12T00:32:52.898Z,6.72
2023-05-12T00:35:22.131Z,6.68
2023-05-12T00:37:50.681Z,6.67
2023-05-12T00:40:19.877Z,6.64
2023-05-12T00:42:49.764Z,6.61
2023-05-12T00:45:20.651Z,6.58
2023-05-12T00:47:49.678Z,6.56
2023-05-12T00:50:19.256Z,6.57
2023-05-12T00:52:48.307Z,6.56
2023-05-12T00:55:17.526Z,6.57
2023-05-12T00:57:47.359Z,6.52
2023-05-12T01:00:20.111Z,6.47
2023-05-12T01:02:49.990Z,6.43
2023-05-12T01:05:19.240Z,6.41
2023-05-12T01:07:48.519Z,6.38
2023-05-12T01:10:21.101Z,6.33
2023-05-12T01:12:50.309Z,6.28
2023-05-12T01:15:21.574Z,6.31
2023-05-12T01:17:52.920Z,6.26
2023-05-12T01:20:24.464Z,6.22
2023-05-12T01:22:53.446Z,6.21
2023-05-12T01:25:24.892Z,6.21
2023-05-12T01:27:55.530Z,6.16
2023-05-12T01:30:25.453Z,6.17
2023-05-12T01:32:54.739Z,6.12
2023-05-12T01:35:23.804Z,6.06
2023-05-12T01:37:58.967Z,6.02
2023-05-12T01:40:27.871Z,6.00
2023-05-12T01:43:00.233Z,5.99
2023-05-12T01:45:33.518Z,5.94
2023-05-12T01:48:02.465Z,5.87
2023-05-12T01:50:31.440Z,5.85
2023-05-12T01:53:01.276Z,5.85
2023-05-12T01:55:30.291Z,5.79
2023-05-12T01:58:01.375Z,5.76
2023-05-12T02:00:30.619Z,5.71
2023-05-12T02:03:01.547Z,5.69
2023-05-12T02:05:31.451Z,5.67
2023-05-12T02:08:00.701Z,5.71
2023-05-12T02:10:29.242Z,5.69
2023-05-12T02:12:58.789Z,5.66
2023-05-12T02:15:30.938Z,5.65
2023-05-12T02:17:59.888Z,5.61
2023-05-12T02:20:29.810Z,5.62
2023-05-12T02:22:58.793Z,5.62
2023-05-12T02:25:27.241Z,5.58
2023-05-12T02:27:56.243Z,5.56
2023-05-12T02:30:25.535Z,5.48
2023-05-12T02:32:56.050Z,5.42
2023-05-12T02:35:25.147Z,5.38
2023-05-12T02:37:53.649Z,5.38
2023-05-12T02:40:22.561Z,5.41
2023-05-12T02:42:51.591Z,5.42
2023-05-12T02:45:20.502Z,5.44
2023-05-12T02:47:49.734Z,5.46
2023-05-12T02:50:20.830Z,5.42
2023-05-12T02:52:49.571Z,5.36
2023-05-12T02:55:19.815Z,5.39
2023-05-12T02:57:48.694Z,5.40
2023-05-12T03:00:18.158Z,5.41
2023-05-12T03:02:47.362Z,5.41
2023-05-12T03:05:16.275Z,5.43
2023-05-12T03:07:46.383Z,5.44
2023-05-12T03:10:15.375Z,5.44
2023-05-12T03:12:44.428Z,5.48
2023-05-12T03:15:13.711Z,5.49
2023-05-12T03:17:43.051Z,5.52
2023-05-12T03:20:12.687Z,5.55
2023-05-12T03:22:41.269Z,5.58
2023-05-12T03:25:13.124Z,5.65
2023-05-12T03:27:42.005Z,5.90
2023-05-12T03:30:12.516Z,6.11
2023-05-12T03:32:41.587Z,6.12
2023-05-12T03:35:12.143Z,6.08
2023-05-12T03:37:40.961Z,6.13
2023-05-12T03:40:18.476Z,6.18
2023-05-12T03:42:49.134Z,6.23
2023-05-12T03:45:20.723Z,6.31
2023-05-12T03:47:50.688Z,6.36
2023-05-12T03:50:20.509Z,6.43
2023-05-12T03:52:49.136Z,6.54
2023-05-12T03:55:19.630Z,6.58
2023-05-12T03:57:49.262Z,6.66
2023-05-12T04:00:19.987Z,6.71
2023-05-12T04:02:49.064Z,6.77
2023-05-12T04:05:18.247Z,6.82
2023-05-12T04:07:46.709Z,6.93
2023-05-12T04:10:15.572Z,7.01
2023-05-12T04:12:45.861Z,7.06
2023-05-12T04:15:15.151Z,7.13
2023-05-12T04:17:44.017Z,7.25
2023-05-12T04:20:14.382Z,7.37
2023-05-12T04:22:44.324Z,7.44
2023-05-12T04:25:13.202Z,7.47
2023-05-12T04:27:42.849Z,7.63
2023-05-12T04:30:13.469Z,7.71
2023-05-12T04:32:44.200Z,7.80
2023-05-12T04:35:13.474Z,7.86
2023-05-12T04:37:42.733Z,7.97
2023-05-12T04:40:12.142Z,7.93
2023-05-12T04:42:41.060Z,7.95
2023-05-12T04:45:13.744Z,8.07
2023-05-12T04:47:43.175Z,8.08
2023-05-12T04:50:12.755Z,8.28
2023-05-12T04:52:41.242Z,8.29
2023-05-12T04:55:11.008Z,8.38
2023-05-12T04:57:41.529Z,8.40
2023-05-12T05:00:15.132Z,8.47
2023-05-12T05:02:46.107Z,8.62
2023-05-12T05:05:15.188Z,8.83
2023-05-12T05:07:43.651Z,8.89
2023-05-12T05:10:13.592Z,9.05
2023-05-12T05:12:44.787Z,8.96
2023-05-12T05:15:15.984Z,9.15
2023-05-12T05:17:49.337Z,9.17
2023-05-12T05:20:19.813Z,9.31
2023-05-12T05:22:49.384Z,9.42
2023-05-12T05:25:18.687Z,9.29
2023-05-12T05:27:47.739Z,9.46
2023-05-12T05:30:18.156Z,9.56
2023-05-12T05:32:47.506Z,9.69
2023-05-12T05:35:16.790Z,9.82
2023-05-12T05:37:50.869Z,10.01
2023-05-12T05:40:19.862Z,10.05
2023-05-12T05:42:49.156Z,10.15
2023-05-12T05:45:19.816Z,10.24
2023-05-12T05:47:51.873Z,10.32
2023-05-12T05:50:21.320Z,10.32
2023-05-12T05:52:49.853Z,10.44
2023-05-12T05:55:18.860Z,10.53
2023-05-12T05:57:48.396Z,10.50
2023-05-12T06:00:19.486Z,10.72
2023-05-12T06:02:52.873Z,10.50
2023-05-12T06:05:23.627Z,10.78
2023-05-12T06:07:52.178Z,11.00
2023-05-12T06:10:22.767Z,11.04
2023-05-12T06:12:51.823Z,11.00
2023-05-12T06:15:22.711Z,11.20
2023-05-12T06:17:51.998Z,11.41
2023-05-12T06:20:23.318Z,11.49
2023-05-12T06:22:51.889Z,11.59
2023-05-12T06:25:21.092Z,11.53
2023-05-12T06:27:52.954Z,11.88
2023-05-12T06:30:23.490Z,11.94
2023-05-12T06:32:56.730Z,12.15
2023-05-12T06:35:25.646Z,12.31
2023-05-12T06:37:54.151Z,12.38
2023-05-12T06:40:23.070Z,12.51
2023-05-12T06:42:52.024Z,12.61
2023-05-12T06:45:24.610Z,12.72
2023-05-12T06:47:53.747Z,12.80
2023-05-12T06:50:22.649Z,12.89
2023-05-12T06:52:53.999Z,13.00
2023-05-12T06:55:23.495Z,12.91
2023-05-12T06:57:55.930Z,12.80
2023-05-12T07:00:27.629Z,12.67
2023-05-12T07:02:56.620Z,12.98
2023-05-12T07:05:25.632Z,13.11
2023-05-12T07:07:54.191Z,13.20
2023-05-12T07:10:23.237Z,13.31
2023-05-12T07:12:53.247Z,13.45
2023-05-12T07:15:22.560Z,13.78
2023-05-12T07:17:55.758Z,14.08
2023-05-12T07:20:25.184Z,14.18
2023-05-12T07:22:54.901Z,13.93
2023-05-12T07:25:23.936Z,13.88
2023-05-12T07:27:53.009Z,13.88
2023-05-12T07:30:22.631Z,14.06
2023-05-12T07:32:53.347Z,14.09
2023-05-12T07:35:22.794Z,14.24
2023-05-12T07:37:51.442Z,14.41
2023-05-12T07:40:20.452Z,14.65
2023-05-12T07:42:49.330Z,14.75
2023-05-12T07:45:23.087Z,14.41
2023-05-12T07:47:53.615Z,14.80
2023-05-12T07:50:22.643Z,14.99
2023-05-12T07:52:52.854Z,15.10
2023-05-12T07:55:23.125Z,15.25
2023-05-12T07:57:51.853Z,14.71
2023-05-12T08:00:21.068Z,14.70
2023-05-12T08:02:50.255Z,15.10
2023-05-12T08:05:20.971Z,15.37
2023-05-12T08:07:49.839Z,15.46
2023-05-12T08:10:19.394Z,15.50
2023-05-12T08:12:48.400Z,15.94
2023-05-12T08:15:17.277Z,15.88
2023-05-12T08:17:46.252Z,14.97
2023-05-12T08:20:15.696Z,14.95
2023-05-12T08:22:47.998Z,15.20
2023-05-12T08:25:16.924Z,15.77
2023-05-12T08:27:45.842Z,15.67
2023-05-12T08:30:16.007Z,15.57
2023-05-12T08:32:44.925Z,15.55
2023-05-12T08:35:14.004Z,15.99
2023-05-12T08:37:45.203Z,16.10
2023-05-12T08:40:19.385Z,16.23
2023-05-12T08:42:55.887Z,16.15
2023-05-12T08:45:25.019Z,16.41
2023-05-12T08:47:55.136Z,15.50
2023-05-12T08:50:24.727Z,15.41
2023-05-12T08:52:53.613Z,16.09
2023-05-12T08:55:29.539Z,16.62
2023-05-12T08:58:01.399Z,16.38
2023-05-12T09:00:31.205Z,16.37
2023-05-12T09:03:00.877Z,16.99
2023-05-12T09:05:31.095Z,17.29
2023-05-12T09:07:59.389Z,17.15
2023-05-12T09:10:34.578Z,17.18
2023-05-12T09:13:05.935Z,16.87
2023-05-12T09:15:37.715Z,17.16
2023-05-12T09:18:06.643Z,17.38
2023-05-12T09:20:35.186Z,17.51
2023-05-12T09:23:14.753Z,17.47
2023-05-12T09:25:44.806Z,17.68
2023-05-12T09:28:15.686Z,17.99
2023-05-12T09:30:47.123Z,18.31
2023-05-12T09:33:16.188Z,18.33
2023-05-12T09:35:46.815Z,16.85
2023-05-12T09:38:15.794Z,15.96
2023-05-12T09:40:45.306Z,15.39
2023-05-12T09:43:15.506Z,16.01
2023-05-12T09:45:46.716Z,17.16
2023-05-12T09:48:15.439Z,16.30
2023-05-12T09:50:47.707Z,18.37
2023-05-12T09:53:18.402Z,19.52
2023-05-12T09:55:49.744Z,20.30
2023-05-12T09:58:20.790Z,22.53
2023-05-12T10:01:17.763Z,21.78
2023-05-12T10:03:41.399Z,24.08
2023-05-12T10:06:14.549Z,23.91
2023-05-12T10:08:54.983Z,23.27
2023-05-12T10:11:24.937Z,24.54
2023-05-12T10:13:53.519Z,23.07
2023-05-12T10:16:22.797Z,26.02
2023-05-12T10:18:51.564Z,27.84
2023-05-12T10:21:20.433Z,26.06
2023-05-12T10:23:49.128Z,27.15
2023-05-12T10:26:19.024Z,27.80
2023-05-12T10:28:48.810Z,27.57
2023-05-12T10:31:18.198Z,26.53
2023-05-12T10:33:57.722Z,22.60
2023-05-12T10:36:26.656Z,22.10
2023-05-12T10:38:56.237Z,20.98
2023-05-12T10:41:31.743Z,23.45
2023-05-12T10:44:01.621Z,24.46
2023-05-12T10:46:30.648Z,24.57
2023-05-12T10:49:01.017Z,25.46
2023-05-12T10:51:31.193Z,24.83
2023-05-12T10:54:01.129Z,22.46
2023-05-12T10:56:31.062Z,19.59
2023-05-12T10:59:14.515Z,20.17
2023-05-12T11:01:44.558Z,21.62
2023-05-12T11:04:15.305Z,22.60
2023-05-12T11:06:46.755Z,25.08
2023-05-12T11:09:17.513Z,24.54
2023-05-12T11:11:47.645Z,26.04
2023-05-12T11:14:18.171Z,22.56
2023-05-12T11:16:47.224Z,23.71
2023-05-12T11:19:15.721Z,24.99
2023-05-12T11:21:44.379Z,23.45
2023-05-12T11:24:13.642Z,26.03
2023-05-12T11:26:44.577Z,27.34
2023-05-12T11:29:13.080Z,29.05
2023-05-12T11:31:42.757Z,28.73
2023-05-12T11:34:13.594Z,27.11
2023-05-12T11:36:43.911Z,22.83
2023-05-12T11:39:17.622Z,22.22
2023-05-12T11:41:46.214Z,25.84
2023-05-12T11:44:18.370Z,26.62
2023-05-12T11:46:58.381Z,29.64
2023-05-12T11:49:27.223Z,30.63
2023-05-12T11:51:56.888Z,30.20
2023-05-12T11:54:26.117Z,28.31
2023-05-12T11:56:55.641Z,30.83
2023-05-12T11:59:28.232Z,31.12
2023-05-12T12:01:58.373Z,33.41
2023-05-12T12:04:36.770Z,30.72
2023-05-12T12:07:06.410Z,30.81
2023-05-12T12:09:36.419Z,26.47
2023-05-12T12:12:06.844Z,22.69
2023-05-12T12:14:38.433Z,23.79
2023-05-12T12:17:08.575Z,24.57
2023-05-12T12:19:37.007Z,27.55
2023-05-12T12:22:06.037Z,26.33
2023-05-12T12:24:34.622Z,25.89
2023-05-12T12:27:04.647Z,28.14
2023-05-12T12:29:33.359Z,28.74
2023-05-12T12:32:02.561Z,30.63
2023-05-12T12:34:32.713Z,30.99
2023-05-12T12:37:01.456Z,28.24
2023-05-12T12:39:30.023Z,27.85
2023-05-12T12:41:59.006Z,27.90
2023-05-12T12:44:27.704Z,24.76
2023-05-12T12:46:55.903Z,23.63
2023-05-12T12:49:24.562Z,26.51
2023-05-12T12:51:55.484Z,24.12
2023-05-12T12:54:27.369Z,23.74
2023-05-12T12:56:56.679Z,24.00
2023-05-12T12:59:25.145Z,24.96
2023-05-12T13:01:53.657Z,25.76
2023-05-12T13:04:23.137Z,26.38
2023-05-12T13:06:51.909Z,27.21
2023-05-12T13:09:21.893Z,28.06
2023-05-12T13:11:50.516Z,28.18
2023-05-12T13:14:19.047Z,26.55
2023-05-12T13:16:47.229Z,24.23
2023-05-12T13:19:15.763Z,25.79
2023-05-12T13:21:44.338Z,27.73
2023-05-12T13:24:12.914Z,26.52
2023-05-12T13:26:42.846Z,25.86
2023-05-12T13:29:11.126Z,24.80
2023-05-12T13:31:41.248Z,24.66
2023-05-12T13:34:09.778Z,25.72
2023-05-12T13:36:38.594Z,26.58
2023-05-12T13:39:07.187Z,26.38
2023-05-12T13:41:36.371Z,26.16
2023-05-12T13:44:06.371Z,26.95
2023-05-12T13:46:35.493Z,26.90
2023-05-12T13:49:04.159Z,26.80
2023-05-12T13:51:33.060Z,26.40
2023-05-12T13:54:01.493Z,26.03
2023-05-12T13:56:30.165Z,25.94
2023-05-12T13:58:58.766Z,24.51
2023-05-12T14:01:28.324Z,25.67
2023-05-12T14:03:59.312Z,25.58
2023-05-12T14:06:28.045Z,24.90
2023-05-12T14:08:56.970Z,24.24
2023-05-12T14:11:25.492Z,24.02
2023-05-12T14:13:53.723Z,23.40
2023-05-12T14:16:22.311Z,23.03
2023-05-12T14:18:52.316Z,22.78
2023-05-12T14:21:20.991Z,21.77
2023-05-12T14:23:51.111Z,20.71
2023-05-12T14:26:21.524Z,20.12
2023-05-12T14:28:49.801Z,21.23
2023-05-12T14:31:18.504Z,19.93
2023-05-12T14:33:47.161Z,19.92
2023-05-12T14:36:17.154Z,21.17
2023-05-12T14:38:45.796Z,22.27
2023-05-12T14:41:14.450Z,22.45
2023-05-12T14:43:42.544Z,23.07
2023-05-12T14:46:12.083Z,21.48
2023-05-12T14:48:40.743Z,21.14
2023-05-12T14:51:09.223Z,21.77
2023-05-12T14:53:40.505Z,23.25
2023-05-12T14:56:09.128Z,23.83
2023-05-12T14:58:37.230Z,24.56
2023-05-12T15:01:08.713Z,25.79
2023-05-12T15:03:38.660Z,24.65
2023-05-12T15:06:08.470Z,25.04
2023-05-12T15:08:37.170Z,22.42
2023-05-12T15:11:07.289Z,23.78
2023-05-12T15:13:35.627Z,24.87
2023-05-12T15:16:04.752Z,25.71
2023-05-12T15:18:33.342Z,24.09
2023-05-12T15:21:01.802Z,22.21
2023-05-12T15:23:30.531Z,20.88
2023-05-12T15:26:03.273Z,21.35
2023-05-12T15:28:36.671Z,21.47
2023-05-12T15:31:05.824Z,19.99
2023-05-12T15:33:34.612Z,20.59
2023-05-12T15:36:03.414Z,21.14
2023-05-12T15:38:32.576Z,22.60
2023-05-12T15:41:01.740Z,24.25
2023-05-12T15:43:30.618Z,25.60
2023-05-12T15:46:00.737Z,25.83
2023-05-12T15:48:30.200Z,25.55
2023-05-12T15:50:58.676Z,24.26
2023-05-12T15:53:27.337Z,23.09
2023-05-12T15:56:00.956Z,21.90
2023-05-12T15:58:29.727Z,22.46
2023-05-12T16:00:58.431Z,22.42
2023-05-12T16:03:28.853Z,21.48
2023-05-12T16:05:57.559Z,20.38
2023-05-12T16:08:26.942Z,19.88
2023-05-12T16:10:56.281Z,19.66
2023-05-12T16:13:25.003Z,19.24
2023-05-12T16:15:53.679Z,19.07
2023-05-12T16:18:22.393Z,20.92
2023-05-12T16:20:52.399Z,22.05
2023-05-12T16:23:20.905Z,23.10
2023-05-12T16:25:49.221Z,24.27
2023-05-12T16:28:17.798Z,24.40
2023-05-12T16:30:46.501Z,24.19
2023-05-12T16:33:15.146Z,24.05
2023-05-12T16:35:43.861Z,23.27
2023-05-12T16:38:13.766Z,23.27
2023-05-12T16:40:41.915Z,23.13
2023-05-12T16:43:10.411Z,22.99
2023-05-12T16:45:39.145Z,21.25
2023-05-12T16:48:07.901Z,21.10
2023-05-12T16:50:36.471Z,21.07
2023-05-12T16:53:05.080Z,21.82
2023-05-12T16:55:34.820Z,22.57
2023-05-12T16:58:03.430Z,21.61
2023-05-12T17:00:31.929Z,22.82
2023-05-12T17:03:02.370Z,23.09
2023-05-12T17:05:32.447Z,22.38
2023-05-12T17:08:00.953Z,21.16
2023-05-12T17:10:29.439Z,21.27
2023-05-12T17:12:59.670Z,21.45
2023-05-12T17:15:28.404Z,20.38
2023-05-12T17:17:57.006Z,19.94
2023-05-12T17:20:25.768Z,20.66
2023-05-12T17:22:53.867Z,20.76
2023-05-12T17:25:23.457Z,20.82
2023-05-12T17:27:52.161Z,20.43
2023-05-12T17:30:22.949Z,19.20
2023-05-12T17:32:51.799Z,18.09
2023-05-12T17:35:20.681Z,17.19
2023-05-12T17:37:49.061Z,16.78
2023-05-12T17:40:18.185Z,16.00
2023-05-12T17:42:46.847Z,15.82
2023-05-12T17:45:15.460Z,15.59
2023-05-12T17:47:46.445Z,15.37
2023-05-12T17:50:16.273Z,15.10
2023-05-12T17:52:44.734Z,14.92
2023-05-12T17:55:13.335Z,14.85
2023-05-12T17:57:42.070Z,14.75
2023-05-12T18:00:12.128Z,14.67
2023-05-12T18:02:43.685Z,14.60
2023-05-12T18:05:13.939Z,14.43
2023-05-12T18:07:42.260Z,14.25
2023-05-12T18:10:11.638Z,14.16
2023-05-12T18:12:40.819Z,14.13
2023-05-12T18:15:11.047Z,14.00
2023-05-12T18:17:39.863Z,13.90
2023-05-12T18:20:10.098Z,13.84
2023-05-12T18:22:40.028Z,13.73
2023-05-12T18:25:11.110Z,13.63
2023-05-12T18:27:40.402Z,13.54
2023-05-12T18:30:10.070Z,13.46
2023-05-12T18:32:39.321Z,13.39
2023-05-12T18:35:09.608Z,13.30
2023-05-12T18:37:39.633Z,13.19
2023-05-12T18:40:09.925Z,13.06
2023-05-12T18:42:39.404Z,12.99
2023-05-12T18:45:09.437Z,12.93
2023-05-12T18:47:38.952Z,12.85
2023-05-12T18:50:08.741Z,12.80
2023-05-12T18:52:37.495Z,12.74
2023-05-12T18:55:09.427Z,12.67
2023-05-12T18:57:38.593Z,12.62
2023-05-12T19:00:10.135Z,12.58
2023-05-12T19:02:39.124Z,12.52
2023-05-12T19:05:08.617Z,12.42
2023-05-12T19:07:37.292Z,12.33
2023-05-12T19:10:10.092Z,12.27
2023-05-12T19:12:39.216Z,12.21
2023-05-12T19:15:09.299Z,12.13
2023-05-12T19:17:38.371Z,12.06
2023-05-12T19:20:09.021Z,11.98
2023-05-12T19:22:37.653Z,11.95
2023-05-12T19:25:10.440Z,11.92
2023-05-12T19:27:39.801Z,11.92
2023-05-12T19:30:09.771Z,11.88
2023-05-12T19:32:42.642Z,11.81
2023-05-12T19:35:12.202Z,11.74
2023-05-12T19:37:41.078Z,11.67
2023-05-12T19:40:12.193Z,11.56
2023-05-12T19:42:42.521Z,11.51
2023-05-12T19:45:11.902Z,11.46
2023-05-12T19:47:41.138Z,11.39
2023-05-12T19:50:11.409Z,11.34
2023-05-12T19:52:40.454Z,11.28
2023-05-12T19:55:11.626Z,11.21
2023-05-12T19:57:40.633Z,11.14
2023-05-12T20:00:11.097Z,11.09
2023-05-12T20:02:44.050Z,11.00
2023-05-12T20:05:13.347Z,10.93
2023-05-12T20:07:42.046Z,10.92
2023-05-12T20:10:13.102Z,10.89
2023-05-12T20:12:42.197Z,10.84
2023-05-12T20:15:12.170Z,10.82
2023-05-12T20:17:41.225Z,10.78
2023-05-12T20:20:12.433Z,10.76
2023-05-12T20:22:40.926Z,10.75
2023-05-12T20:25:12.508Z,10.69
2023-05-12T20:27:43.216Z,10.62
2023-05-12T20:30:13.408Z,10.59
2023-05-12T20:32:43.909Z,10.58
2023-05-12T20:35:13.200Z,10.54
2023-05-12T20:37:43.810Z,10.49
2023-05-12T20:40:14.969Z,10.42
2023-05-12T20:42:46.850Z,10.38
2023-05-12T20:45:16.579Z,10.34
2023-05-12T20:47:45.802Z,10.33
2023-05-12T20:50:14.810Z,10.30
2023-05-12T20:52:43.450Z,10.27
2023-05-12T20:55:12.355Z,10.21
2023-05-12T20:57:41.519Z,10.20
2023-05-12T21:00:13.792Z,10.17
2023-05-12T21:02:42.951Z,10.15
2023-05-12T21:05:11.968Z,10.12
2023-05-12T21:07:40.952Z,10.05
2023-05-12T21:10:10.619Z,10.00
2023-05-12T21:12:39.726Z,9.99
2023-05-12T21:15:13.031Z,9.94
2023-05-12T21:17:42.472Z,9.93
2023-05-12T21:20:12.653Z,9.89
2023-05-12T21:22:41.788Z,9.84
2023-05-12T21:25:11.425Z,9.82
2023-05-12T21:27:42.092Z,9.79
2023-05-12T21:30:13.142Z,9.78
2023-05-12T21:32:42.218Z,9.82
2023-05-12T21:35:11.296Z,9.84
2023-05-12T21:37:39.812Z,9.84
2023-05-12T21:40:10.044Z,9.85
2023-05-12T21:42:39.096Z,9.78
2023-05-12T21:45:09.254Z,9.79
2023-05-12T21:47:39.900Z,9.76
2023-05-12T21:50:08.721Z,9.76
2023-05-12T21:52:37.145Z,9.69
2023-05-12T21:55:06.621Z,9.64
2023-05-12T21:57:35.914Z,9.57
2023-05-12T22:00:05.687Z,9.53
2023-05-12T22:02:39.748Z,9.48
2023-05-12T22:05:09.126Z,9.45
2023-05-12T22:07:37.586Z,9.47
2023-05-12T22:10:07.287Z,9.47
2023-05-12T22:12:38.842Z,9.47
2023-05-12T22:15:09.211Z,9.47
2023-05-12T22:17:39.577Z,9.51
2023-05-12T22:20:10.424Z,9.47
2023-05-12T22:22:39.045Z,9.41
2023-05-12T22:25:09.096Z,9.36
2023-05-12T22:27:38.475Z,9.32
2023-05-12T22:30:10.202Z,9.33
2023-05-12T22:32:40.535Z,9.31
2023-05-12T22:35:09.766Z,9.27
2023-05-12T22:37:38.319Z,9.21
2023-05-12T22:40:08.815Z,9.18
2023-05-12T22:42:37.438Z,9.16
2023-05-12T22:45:07.271Z,9.17
2023-05-12T22:47:36.338Z,9.18
2023-05-12T22:50:07.877Z,9.15
2023-05-12T22:52:36.455Z,9.09
2023-05-12T22:55:05.814Z,9.06
2023-05-12T22:57:34.806Z,9.03
2023-05-12T23:00:03.877Z,9.03
2023-05-12T23:02:32.912Z,8.99
2023-05-12T23:05:01.802Z,8.93
2023-05-12T23:07:31.827Z,8.89
2023-05-12T23:10:00.520Z,8.84
2023-05-12T23:12:29.584Z,8.82
2023-05-12T23:14:58.699Z,8.81
2023-05-12T23:17:27.790Z,8.78
2023-05-12T23:19:56.613Z,8.69
2023-05-12T23:22:25.660Z,8.61
2023-05-12T23:24:57.624Z,8.60
2023-05-12T23:27:26.950Z,8.57
2023-05-12T23:29:55.934Z,8.53
2023-05-12T23:32:25.279Z,8.49
2023-05-12T23:34:53.948Z,8.44
2023-05-12T23:37:24.578Z,8.39
2023-05-12T23:39:53.578Z,8.38
2023-05-12T23:42:23.872Z,8.37
2023-05-12T23:44:52.915Z,8.34
2023-05-12T23:47:21.866Z,8.27
2023-05-12T23:49:50.391Z,8.23
2023-05-12T23:52:19.334Z,8.22
2023-05-12T23:54:48.261Z,8.19
2023-05-12T23:57:17.293Z,8.16
2023-05-12T23:59:47.704Z,8.17
